sensor_id;sensor_type;location;lat;lon;timestamp;temperature;humidity
1129;DHT22;553;51.038;7.216;2022-08-21T00:01:42;17.00;99.90
1129;DHT22;553;51.038;7.216;2022-08-21T00:04:10;17.00;99.90
1129;DHT22;553;51.038;7.216;2022-08-21T00:06:40;16.90;99.90
1129;DHT22;553;51.038;7.216;2022-08-21T00:09:08;17.00;99.90
1129;DHT22;553;51.038;7.216;2022-08-21T00:11:36;16.90;99.90
1129;DHT22;553;51.038;7.216;2022-08-21T00:14:06;16.90;99.90
1129;DHT22;553;51.038;7.216;2022-08-21T00:16:33;16.80;99.90
1129;DHT22;553;51.038;7.216;2022-08-21T00:19:00;16.80;99.90
1129;DHT22;553;51.038;7.216;2022-08-21T00:21:27;16.80;99.90
1129;DHT22;553;51.038;7.216;2022-08-21T00:23:54;16.80;99.90
1129;DHT22;553;51.038;7.216;2022-08-21T00:26:20;16.80;99.90
1129;DHT22;553;51.038;7.216;2022-08-21T00:28:47;16.70;99.90
1129;DHT22;553;51.038;7.216;2022-08-21T00:31:16;16.60;99.90
1129;DHT22;553;51.038;7.216;2022-08-21T00:33:43;16.60;99.90
1129;DHT22;553;51.038;7.216;2022-08-21T00:36:11;16.40;99.90
1129;DHT22;553;51.038;7.216;2022-08-21T00:38:38;16.30;99.90
1129;DHT22;553;51.038;7.216;2022-08-21T00:41:09;16.20;99.90
1129;DHT22;553;51.038;7.216;2022-08-21T00:43:57;16.10;99.90
1129;DHT22;553;51.038;7.216;2022-08-21T00:46:24;16.10;99.90
1129;DHT22;553;51.038;7.216;2022-08-21T00:48:54;16.10;99.90
1129;DHT22;553;51.038;7.216;2022-08-21T00:51:40;16.20;99.90
1129;DHT22;553;51.038;7.216;2022-08-21T00:54:09;16.20;99.90
1129;DHT22;553;51.038;7.216;2022-08-21T00:56:46;16.20;99.90
1129;DHT22;553;51.038;7.216;2022-08-21T00:59:17;16.10;99.90
1129;DHT22;553;51.038;7.216;2022-08-21T01:01:44;16.20;99.90
1129;DHT22;553;51.038;7.216;2022-08-21T01:04:11;16.20;99.90
1129;DHT22;553;51.038;7.216;2022-08-21T01:06:38;16.20;99.90
1129;DHT22;553;51.038;7.216;2022-08-21T01:09:04;16.20;99.90
1129;DHT22;553;51.038;7.216;2022-08-21T01:11:31;16.30;99.90
1129;DHT22;553;51.038;7.216;2022-08-21T01:13:58;16.30;99.90
1129;DHT22;553;51.038;7.216;2022-08-21T01:16:25;16.30;99.90
1129;DHT22;553;51.038;7.216;2022-08-21T01:18:52;16.30;99.90
1129;DHT22;553;51.038;7.216;2022-08-21T01:21:25;16.30;99.90
1129;DHT22;553;51.038;7.216;2022-08-21T01:23:55;16.40;99.90
1129;DHT22;553;51.038;7.216;2022-08-21T01:26:26;16.30;99.90
1129;DHT22;553;51.038;7.216;2022-08-21T01:31:49;16.20;99.90
1129;DHT22;553;51.038;7.216;2022-08-21T01:34:16;16.20;99.90
1129;DHT22;553;51.038;7.216;2022-08-21T01:36:44;16.20;99.90
1129;DHT22;553;51.038;7.216;2022-08-21T01:39:12;16.10;99.90
1129;DHT22;553;51.038;7.216;2022-08-21T01:41:39;15.90;99.90
1129;DHT22;553;51.038;7.216;2022-08-21T01:44:06;15.90;99.90
1129;DHT22;553;51.038;7.216;2022-08-21T01:46:32;15.90;99.90
1129;DHT22;553;51.038;7.216;2022-08-21T01:48:59;15.90;99.90
1129;DHT22;553;51.038;7.216;2022-08-21T01:51:26;15.90;99.90
1129;DHT22;553;51.038;7.216;2022-08-21T01:53:53;15.90;99.90
1129;DHT22;553;51.038;7.216;2022-08-21T01:56:19;15.90;99.90
1129;DHT22;553;51.038;7.216;2022-08-21T01:58:47;15.90;99.90
1129;DHT22;553;51.038;7.216;2022-08-21T02:01:14;15.80;99.90
1129;DHT22;553;51.038;7.216;2022-08-21T02:03:41;15.80;99.90
1129;DHT22;553;51.038;7.216;2022-08-21T02:06:13;15.80;99.90
1129;DHT22;553;51.038;7.216;2022-08-21T02:08:41;15.70;99.90
1129;DHT22;553;51.038;7.216;2022-08-21T02:11:08;15.70;99.90
1129;DHT22;553;51.038;7.216;2022-08-21T02:13:35;15.70;99.90
1129;DHT22;553;51.038;7.216;2022-08-21T02:16:02;15.70;99.90
1129;DHT22;553;51.038;7.216;2022-08-21T02:18:29;15.60;99.90
1129;DHT22;553;51.038;7.216;2022-08-21T02:20:56;15.60;99.90
1129;DHT22;553;51.038;7.216;2022-08-21T02:23:24;15.70;99.90
1129;DHT22;553;51.038;7.216;2022-08-21T02:26:00;15.60;99.90
1129;DHT22;553;51.038;7.216;2022-08-21T02:28:27;15.50;99.90
1129;DHT22;553;51.038;7.216;2022-08-21T02:30:55;15.50;99.90
1129;DHT22;553;51.038;7.216;2022-08-21T02:33:23;15.40;99.90
1129;DHT22;553;51.038;7.216;2022-08-21T02:35:50;15.50;99.90
1129;DHT22;553;51.038;7.216;2022-08-21T02:38:21;15.40;99.90
1129;DHT22;553;51.038;7.216;2022-08-21T02:40:50;15.40;99.90
1129;DHT22;553;51.038;7.216;2022-08-21T02:43:18;15.40;99.90
1129;DHT22;553;51.038;7.216;2022-08-21T02:45:46;15.40;99.90
1129;DHT22;553;51.038;7.216;2022-08-21T02:48:18;15.40;99.90
1129;DHT22;553;51.038;7.216;2022-08-21T02:50:47;15.30;99.90
1129;DHT22;553;51.038;7.216;2022-08-21T02:53:16;15.40;99.90
1129;DHT22;553;51.038;7.216;2022-08-21T02:55:48;15.40;99.90
1129;DHT22;553;51.038;7.216;2022-08-21T02:58:19;15.40;99.90
1129;DHT22;553;51.038;7.216;2022-08-21T03:00:46;15.30;99.90
1129;DHT22;553;51.038;7.216;2022-08-21T03:03:13;15.30;99.90
1129;DHT22;553;51.038;7.216;2022-08-21T03:05:41;15.20;99.90
1129;DHT22;553;51.038;7.216;2022-08-21T03:08:11;15.20;99.90
1129;DHT22;553;51.038;7.216;2022-08-21T03:10:39;15.20;99.90
1129;DHT22;553;51.038;7.216;2022-08-21T03:13:07;15.20;99.90
1129;DHT22;553;51.038;7.216;2022-08-21T03:15:34;15.20;99.90
1129;DHT22;553;51.038;7.216;2022-08-21T03:18:02;15.10;99.90
1129;DHT22;553;51.038;7.216;2022-08-21T03:20:30;15.10;99.90
1129;DHT22;553;51.038;7.216;2022-08-21T03:22:59;15.10;99.90
1129;DHT22;553;51.038;7.216;2022-08-21T03:25:27;15.10;99.90
1129;DHT22;553;51.038;7.216;2022-08-21T03:28:10;15.10;99.90
1129;DHT22;553;51.038;7.216;2022-08-21T03:30:43;15.00;99.90
1129;DHT22;553;51.038;7.216;2022-08-21T03:33:11;15.00;99.90
1129;DHT22;553;51.038;7.216;2022-08-21T03:35:42;14.90;99.90
1129;DHT22;553;51.038;7.216;2022-08-21T03:38:09;15.00;99.90
1129;DHT22;553;51.038;7.216;2022-08-21T03:40:36;15.00;99.90
1129;DHT22;553;51.038;7.216;2022-08-21T03:43:03;15.00;99.90
1129;DHT22;553;51.038;7.216;2022-08-21T03:45:30;15.00;99.90
1129;DHT22;553;51.038;7.216;2022-08-21T03:48:02;15.00;99.90
1129;DHT22;553;51.038;7.216;2022-08-21T03:50:32;14.90;99.90
1129;DHT22;553;51.038;7.216;2022-08-21T03:53:00;14.80;99.90
1129;DHT22;553;51.038;7.216;2022-08-21T03:55:27;14.90;99.90
1129;DHT22;553;51.038;7.216;2022-08-21T03:57:54;14.80;99.90
1129;DHT22;553;51.038;7.216;2022-08-21T04:00:22;14.80;99.90
1129;DHT22;553;51.038;7.216;2022-08-21T04:02:49;14.80;99.90
1129;DHT22;553;51.038;7.216;2022-08-21T04:05:18;14.60;99.90
1129;DHT22;553;51.038;7.216;2022-08-21T04:07:55;14.50;99.90
1129;DHT22;553;51.038;7.216;2022-08-21T04:10:23;14.40;99.90
1129;DHT22;553;51.038;7.216;2022-08-21T04:12:52;14.50;99.90
1129;DHT22;553;51.038;7.216;2022-08-21T04:15:20;14.50;99.90
1129;DHT22;553;51.038;7.216;2022-08-21T04:17:47;14.50;99.90
1129;DHT22;553;51.038;7.216;2022-08-21T04:20:16;14.50;99.90
1129;DHT22;553;51.038;7.216;2022-08-21T04:22:44;14.50;99.90
1129;DHT22;553;51.038;7.216;2022-08-21T04:25:12;14.60;99.90
1129;DHT22;553;51.038;7.216;2022-08-21T04:27:39;14.60;99.90
1129;DHT22;553;51.038;7.216;2022-08-21T04:30:07;14.50;99.90
1129;DHT22;553;51.038;7.216;2022-08-21T04:32:41;14.50;99.90
1129;DHT22;553;51.038;7.216;2022-08-21T04:35:09;14.40;99.90
1129;DHT22;553;51.038;7.216;2022-08-21T04:37:36;14.50;99.90
1129;DHT22;553;51.038;7.216;2022-08-21T04:40:09;14.60;99.90
1129;DHT22;553;51.038;7.216;2022-08-21T04:42:43;14.50;99.90
1129;DHT22;553;51.038;7.216;2022-08-21T04:45:28;14.50;99.90
1129;DHT22;553;51.038;7.216;2022-08-21T04:47:58;14.50;99.90
1129;DHT22;553;51.038;7.216;2022-08-21T04:53:14;14.40;99.90
1129;DHT22;553;51.038;7.216;2022-08-21T04:55:42;14.40;99.90
1129;DHT22;553;51.038;7.216;2022-08-21T04:58:12;14.50;99.90
1129;DHT22;553;51.038;7.216;2022-08-21T05:00:39;14.50;99.90
1129;DHT22;553;51.038;7.216;2022-08-21T05:03:07;14.50;99.90
1129;DHT22;553;51.038;7.216;2022-08-21T05:05:36;14.50;99.90
1129;DHT22;553;51.038;7.216;2022-08-21T05:08:03;14.50;99.90
1129;DHT22;553;51.038;7.216;2022-08-21T05:10:31;14.60;99.90
1129;DHT22;553;51.038;7.216;2022-08-21T05:12:58;14.60;99.90
1129;DHT22;553;51.038;7.216;2022-08-21T05:15:27;14.60;99.90
1129;DHT22;553;51.038;7.216;2022-08-21T05:17:53;14.60;99.90
1129;DHT22;553;51.038;7.216;2022-08-21T05:20:27;14.60;99.90
1129;DHT22;553;51.038;7.216;2022-08-21T05:22:55;14.60;99.90
1129;DHT22;553;51.038;7.216;2022-08-21T05:25:22;14.60;99.90
1129;DHT22;553;51.038;7.216;2022-08-21T05:27:49;14.70;99.90
1129;DHT22;553;51.038;7.216;2022-08-21T05:30:18;14.70;99.90
1129;DHT22;553;51.038;7.216;2022-08-21T05:32:45;14.70;99.90
1129;DHT22;553;51.038;7.216;2022-08-21T05:35:12;14.70;99.90
1129;DHT22;553;51.038;7.216;2022-08-21T05:37:40;14.80;99.90
1129;DHT22;553;51.038;7.216;2022-08-21T05:40:07;14.80;99.90
1129;DHT22;553;51.038;7.216;2022-08-21T05:42:53;14.90;99.90
1129;DHT22;553;51.038;7.216;2022-08-21T05:45:27;15.00;99.90
1129;DHT22;553;51.038;7.216;2022-08-21T05:48:29;15.20;99.90
1129;DHT22;553;51.038;7.216;2022-08-21T05:50:57;15.20;99.90
1129;DHT22;553;51.038;7.216;2022-08-21T05:53:24;15.30;99.90
1129;DHT22;553;51.038;7.216;2022-08-21T05:55:51;15.30;99.90
1129;DHT22;553;51.038;7.216;2022-08-21T05:58:20;15.30;99.90
1129;DHT22;553;51.038;7.216;2022-08-21T06:00:48;15.50;99.90
1129;DHT22;553;51.038;7.216;2022-08-21T06:03:22;15.60;99.90
1129;DHT22;553;51.038;7.216;2022-08-21T06:05:49;15.70;99.90
1129;DHT22;553;51.038;7.216;2022-08-21T06:08:18;16.00;99.90
1129;DHT22;553;51.038;7.216;2022-08-21T06:10:47;16.10;99.90
1129;DHT22;553;51.038;7.216;2022-08-21T06:13:15;16.40;99.90
1129;DHT22;553;51.038;7.216;2022-08-21T06:15:43;16.60;99.90
1129;DHT22;553;51.038;7.216;2022-08-21T06:18:10;16.90;99.90
1129;DHT22;553;51.038;7.216;2022-08-21T06:20:37;17.10;99.90
1129;DHT22;553;51.038;7.216;2022-08-21T06:23:04;17.40;99.90
1129;DHT22;553;51.038;7.216;2022-08-21T06:25:31;17.70;99.90
1129;DHT22;553;51.038;7.216;2022-08-21T06:28:08;18.00;98.90
1129;DHT22;553;51.038;7.216;2022-08-21T06:30:37;18.30;98.50
1129;DHT22;553;51.038;7.216;2022-08-21T06:33:04;18.50;97.20
1129;DHT22;553;51.038;7.216;2022-08-21T06:35:33;18.70;96.40
1129;DHT22;553;51.038;7.216;2022-08-21T06:38:00;18.90;96.40
1129;DHT22;553;51.038;7.216;2022-08-21T06:40:28;19.10;95.20
1129;DHT22;553;51.038;7.216;2022-08-21T06:42:57;19.40;94.60
1129;DHT22;553;51.038;7.216;2022-08-21T06:45:25;19.60;93.90
1129;DHT22;553;51.038;7.216;2022-08-21T06:47:58;19.70;93.20
1129;DHT22;553;51.038;7.216;2022-08-21T06:50:24;19.90;93.40
1129;DHT22;553;51.038;7.216;2022-08-21T06:53:05;19.70;93.30
1129;DHT22;553;51.038;7.216;2022-08-21T06:55:32;19.80;93.20
1129;DHT22;553;51.038;7.216;2022-08-21T06:58:00;20.10;93.30
1129;DHT22;553;51.038;7.216;2022-08-21T07:00:27;20.20;92.30
1129;DHT22;553;51.038;7.216;2022-08-21T07:02:54;20.20;91.40
1129;DHT22;553;51.038;7.216;2022-08-21T07:05:21;20.30;91.30
1129;DHT22;553;51.038;7.216;2022-08-21T07:07:48;20.50;90.60
1129;DHT22;553;51.038;7.216;2022-08-21T07:10:15;20.50;90.30
1129;DHT22;553;51.038;7.216;2022-08-21T07:12:50;20.60;90.00
1129;DHT22;553;51.038;7.216;2022-08-21T07:15:28;20.60;90.40
1129;DHT22;553;51.038;7.216;2022-08-21T07:17:57;20.80;91.20
1129;DHT22;553;51.038;7.216;2022-08-21T07:20:24;21.10;89.50
1129;DHT22;553;51.038;7.216;2022-08-21T07:22:50;21.40;90.20
1129;DHT22;553;51.038;7.216;2022-08-21T07:25:17;21.50;88.10
1129;DHT22;553;51.038;7.216;2022-08-21T07:27:44;21.50;87.40
1129;DHT22;553;51.038;7.216;2022-08-21T07:30:11;21.80;87.00
1129;DHT22;553;51.038;7.216;2022-08-21T07:32:38;21.80;85.70
1129;DHT22;553;51.038;7.216;2022-08-21T07:35:05;21.80;86.10
1129;DHT22;553;51.038;7.216;2022-08-21T07:37:31;22.10;85.30
1129;DHT22;553;51.038;7.216;2022-08-21T07:39:58;22.10;84.40
1129;DHT22;553;51.038;7.216;2022-08-21T07:42:25;21.90;86.00
1129;DHT22;553;51.038;7.216;2022-08-21T07:44:55;21.90;85.20
1129;DHT22;553;51.038;7.216;2022-08-21T07:47:22;21.90;85.50
1129;DHT22;553;51.038;7.216;2022-08-21T07:50:08;22.10;85.80
1129;DHT22;553;51.038;7.216;2022-08-21T07:52:35;22.10;85.80
1129;DHT22;553;51.038;7.216;2022-08-21T07:55:02;22.10;85.60
1129;DHT22;553;51.038;7.216;2022-08-21T07:57:32;22.10;84.70
1129;DHT22;553;51.038;7.216;2022-08-21T07:59:59;22.30;85.00
1129;DHT22;553;51.038;7.216;2022-08-21T08:02:28;22.50;83.60
1129;DHT22;553;51.038;7.216;2022-08-21T08:05:04;22.50;83.40
1129;DHT22;553;51.038;7.216;2022-08-21T08:07:31;22.70;82.20
1129;DHT22;553;51.038;7.216;2022-08-21T08:09:58;23.00;80.60
1129;DHT22;553;51.038;7.216;2022-08-21T08:12:25;22.90;80.50
1129;DHT22;553;51.038;7.216;2022-08-21T08:15:00;23.00;81.60
1129;DHT22;553;51.038;7.216;2022-08-21T08:17:27;23.40;80.50
1129;DHT22;553;51.038;7.216;2022-08-21T08:19:54;23.20;79.60
1129;DHT22;553;51.038;7.216;2022-08-21T08:22:22;23.40;79.20
1129;DHT22;553;51.038;7.216;2022-08-21T08:24:51;23.30;78.50
1129;DHT22;553;51.038;7.216;2022-08-21T08:27:19;23.40;78.00
1129;DHT22;553;51.038;7.216;2022-08-21T08:29:47;23.60;77.40
1129;DHT22;553;51.038;7.216;2022-08-21T08:32:14;23.60;76.80
1129;DHT22;553;51.038;7.216;2022-08-21T08:34:40;23.60;77.90
1129;DHT22;553;51.038;7.216;2022-08-21T08:37:08;23.60;77.50
1129;DHT22;553;51.038;7.216;2022-08-21T08:39:36;23.80;78.40
1129;DHT22;553;51.038;7.216;2022-08-21T08:42:30;24.00;76.80
1129;DHT22;553;51.038;7.216;2022-08-21T08:45:10;24.30;75.80
1129;DHT22;553;51.038;7.216;2022-08-21T08:47:40;24.60;74.40
1129;DHT22;553;51.038;7.216;2022-08-21T08:50:11;24.60;74.30
1129;DHT22;553;51.038;7.216;2022-08-21T08:52:54;24.40;74.80
1129;DHT22;553;51.038;7.216;2022-08-21T08:55:31;24.50;75.20
1129;DHT22;553;51.038;7.216;2022-08-21T08:57:59;24.40;74.60
1129;DHT22;553;51.038;7.216;2022-08-21T09:00:29;24.80;73.40
1129;DHT22;553;51.038;7.216;2022-08-21T09:03:01;24.90;73.20
1129;DHT22;553;51.038;7.216;2022-08-21T09:05:29;24.90;73.00
1129;DHT22;553;51.038;7.216;2022-08-21T09:08:36;24.90;73.80
1129;DHT22;553;51.038;7.216;2022-08-21T09:11:28;24.80;73.80
1129;DHT22;553;51.038;7.216;2022-08-21T09:22:28;24.90;74.00
1129;DHT22;553;51.038;7.216;2022-08-21T09:27:50;25.10;73.50
1129;DHT22;553;51.038;7.216;2022-08-21T09:30:18;25.40;73.20
1129;DHT22;553;51.038;7.216;2022-08-21T09:32:45;25.50;72.80
1129;DHT22;553;51.038;7.216;2022-08-21T09:35:17;25.60;72.90
1129;DHT22;553;51.038;7.216;2022-08-21T09:43:22;25.50;70.90
1129;DHT22;553;51.038;7.216;2022-08-21T09:46:11;25.40;71.80
1129;DHT22;553;51.038;7.216;2022-08-21T09:48:45;25.20;72.50
1129;DHT22;553;51.038;7.216;2022-08-21T09:51:18;25.30;72.10
1129;DHT22;553;51.038;7.216;2022-08-21T09:53:51;25.00;72.20
1129;DHT22;553;51.038;7.216;2022-08-21T09:56:27;25.20;72.10
1129;DHT22;553;51.038;7.216;2022-08-21T09:59:33;25.40;71.40
1129;DHT22;553;51.038;7.216;2022-08-21T10:02:32;25.40;71.50
1129;DHT22;553;51.038;7.216;2022-08-21T10:05:03;25.60;71.20
1129;DHT22;553;51.038;7.216;2022-08-21T10:07:32;25.70;71.30
1129;DHT22;553;51.038;7.216;2022-08-21T10:10:02;25.70;69.80
1129;DHT22;553;51.038;7.216;2022-08-21T10:12:49;25.60;70.50
1129;DHT22;553;51.038;7.216;2022-08-21T10:18:36;25.80;71.80
1129;DHT22;553;51.038;7.216;2022-08-21T10:21:17;25.80;71.30
1129;DHT22;553;51.038;7.216;2022-08-21T10:24:01;25.90;70.80
1129;DHT22;553;51.038;7.216;2022-08-21T10:34:11;25.70;70.40
1129;DHT22;553;51.038;7.216;2022-08-21T10:45:00;26.00;69.50
1129;DHT22;553;51.038;7.216;2022-08-21T10:51:16;26.10;68.60
1129;DHT22;553;51.038;7.216;2022-08-21T10:53:34;26.20;69.20
1129;DHT22;553;51.038;7.216;2022-08-21T10:56:13;26.20;69.20
1129;DHT22;553;51.038;7.216;2022-08-21T11:01:15;26.10;68.20
1129;DHT22;553;51.038;7.216;2022-08-21T11:04:31;25.80;69.10
1129;DHT22;553;51.038;7.216;2022-08-21T11:07:19;25.90;68.80
1129;DHT22;553;51.038;7.216;2022-08-21T11:09:48;26.00;69.60
1129;DHT22;553;51.038;7.216;2022-08-21T11:12:34;26.00;69.10
1129;DHT22;553;51.038;7.216;2022-08-21T11:23:42;25.90;69.20
1129;DHT22;553;51.038;7.216;2022-08-21T11:26:17;25.90;68.10
1129;DHT22;553;51.038;7.216;2022-08-21T11:28:54;26.00;68.70
1129;DHT22;553;51.038;7.216;2022-08-21T11:31:39;26.00;67.60
1129;DHT22;553;51.038;7.216;2022-08-21T11:37:16;25.90;69.10
1129;DHT22;553;51.038;7.216;2022-08-21T11:39:56;26.10;68.60
1129;DHT22;553;51.038;7.216;2022-08-21T11:42:29;26.20;67.90
1129;DHT22;553;51.038;7.216;2022-08-21T11:50:51;26.30;67.00
1129;DHT22;553;51.038;7.216;2022-08-21T11:53:32;26.40;66.30
1129;DHT22;553;51.038;7.216;2022-08-21T11:59:17;26.70;66.10
1129;DHT22;553;51.038;7.216;2022-08-21T12:01:48;26.50;65.60
1129;DHT22;553;51.038;7.216;2022-08-21T12:04:29;26.50;67.10
1129;DHT22;553;51.038;7.216;2022-08-21T12:07:12;26.70;66.00
1129;DHT22;553;51.038;7.216;2022-08-21T12:09:39;26.80;66.70
1129;DHT22;553;51.038;7.216;2022-08-21T12:14:51;26.80;66.00
1129;DHT22;553;51.038;7.216;2022-08-21T12:17:24;26.70;65.20
1129;DHT22;553;51.038;7.216;2022-08-21T12:22:54;26.80;67.30
1129;DHT22;553;51.038;7.216;2022-08-21T12:25:22;26.80;66.30
1129;DHT22;553;51.038;7.216;2022-08-21T12:28:02;26.90;66.60
1129;DHT22;553;51.038;7.216;2022-08-21T12:30:39;26.70;65.90
1129;DHT22;553;51.038;7.216;2022-08-21T12:35:46;26.40;66.40
1129;DHT22;553;51.038;7.216;2022-08-21T12:38:23;26.40;66.10
1129;DHT22;553;51.038;7.216;2022-08-21T12:41:06;26.60;66.80
1129;DHT22;553;51.038;7.216;2022-08-21T12:43:46;26.50;66.10
1129;DHT22;553;51.038;7.216;2022-08-21T12:46:27;26.70;65.50
1129;DHT22;553;51.038;7.216;2022-08-21T12:49:08;27.00;64.30
1129;DHT22;553;51.038;7.216;2022-08-21T12:51:57;26.70;66.00
1129;DHT22;553;51.038;7.216;2022-08-21T12:54:30;26.90;64.70
1129;DHT22;553;51.038;7.216;2022-08-21T12:57:03;27.00;64.50
1129;DHT22;553;51.038;7.216;2022-08-21T12:59:31;27.10;63.80
1129;DHT22;553;51.038;7.216;2022-08-21T13:02:00;27.10;63.30
1129;DHT22;553;51.038;7.216;2022-08-21T13:04:39;27.10;63.90
1129;DHT22;553;51.038;7.216;2022-08-21T13:07:12;26.90;64.20
1129;DHT22;553;51.038;7.216;2022-08-21T13:09:52;26.80;63.40
1129;DHT22;553;51.038;7.216;2022-08-21T13:12:21;26.70;63.20
1129;DHT22;553;51.038;7.216;2022-08-21T13:14:56;26.90;63.80
1129;DHT22;553;51.038;7.216;2022-08-21T13:17:25;26.70;63.50
1129;DHT22;553;51.038;7.216;2022-08-21T13:19:54;26.90;63.90
1129;DHT22;553;51.038;7.216;2022-08-21T13:22:21;27.00;64.30
1129;DHT22;553;51.038;7.216;2022-08-21T13:25:00;27.10;63.70
1129;DHT22;553;51.038;7.216;2022-08-21T13:27:32;27.20;63.50
1129;DHT22;553;51.038;7.216;2022-08-21T13:30:18;27.20;62.70
1129;DHT22;553;51.038;7.216;2022-08-21T13:32:48;26.90;63.00
1129;DHT22;553;51.038;7.216;2022-08-21T13:35:45;27.00;63.60
1129;DHT22;553;51.038;7.216;2022-08-21T13:38:14;26.80;64.30
1129;DHT22;553;51.038;7.216;2022-08-21T13:40:46;26.90;63.60
1129;DHT22;553;51.038;7.216;2022-08-21T13:43:18;26.90;64.20
1129;DHT22;553;51.038;7.216;2022-08-21T13:45:52;26.90;63.60
1129;DHT22;553;51.038;7.216;2022-08-21T13:48:20;27.00;64.90
1129;DHT22;553;51.038;7.216;2022-08-21T13:50:48;27.20;63.80
1129;DHT22;553;51.038;7.216;2022-08-21T13:53:31;27.30;64.30
1129;DHT22;553;51.038;7.216;2022-08-21T13:55:59;27.30;63.10
1129;DHT22;553;51.038;7.216;2022-08-21T13:58:43;27.30;63.10
1129;DHT22;553;51.038;7.216;2022-08-21T14:01:49;27.30;63.20
1129;DHT22;553;51.038;7.216;2022-08-21T14:04:22;27.20;64.10
1129;DHT22;553;51.038;7.216;2022-08-21T14:06:51;27.30;64.40
1129;DHT22;553;51.038;7.216;2022-08-21T14:09:33;27.40;63.40
1129;DHT22;553;51.038;7.216;2022-08-21T14:12:11;27.60;63.20
1129;DHT22;553;51.038;7.216;2022-08-21T14:14:49;27.40;63.60
1129;DHT22;553;51.038;7.216;2022-08-21T14:17:32;27.50;63.20
1129;DHT22;553;51.038;7.216;2022-08-21T14:20:00;27.50;63.20
1129;DHT22;553;51.038;7.216;2022-08-21T14:30:25;27.50;62.70
1129;DHT22;553;51.038;7.216;2022-08-21T14:32:53;27.30;62.60
1129;DHT22;553;51.038;7.216;2022-08-21T14:35:20;27.40;63.80
1129;DHT22;553;51.038;7.216;2022-08-21T14:37:50;27.50;63.30
1129;DHT22;553;51.038;7.216;2022-08-21T14:40:19;27.40;62.80
1129;DHT22;553;51.038;7.216;2022-08-21T14:42:46;27.30;63.00
1129;DHT22;553;51.038;7.216;2022-08-21T14:45:22;27.30;63.20
1129;DHT22;553;51.038;7.216;2022-08-21T14:47:54;27.30;63.10
1129;DHT22;553;51.038;7.216;2022-08-21T14:50:22;27.30;63.20
1129;DHT22;553;51.038;7.216;2022-08-21T14:52:48;27.40;63.50
1129;DHT22;553;51.038;7.216;2022-08-21T14:55:16;27.50;63.10
1129;DHT22;553;51.038;7.216;2022-08-21T14:57:47;27.50;63.20
1129;DHT22;553;51.038;7.216;2022-08-21T15:00:17;27.30;63.30
1129;DHT22;553;51.038;7.216;2022-08-21T15:02:44;27.30;63.50
1129;DHT22;553;51.038;7.216;2022-08-21T15:05:12;27.50;63.10
1129;DHT22;553;51.038;7.216;2022-08-21T15:07:41;27.20;62.90
1129;DHT22;553;51.038;7.216;2022-08-21T15:10:08;27.20;62.70
1129;DHT22;553;51.038;7.216;2022-08-21T15:12:35;27.20;63.10
1129;DHT22;553;51.038;7.216;2022-08-21T15:15:05;27.20;62.70
1129;DHT22;553;51.038;7.216;2022-08-21T15:17:32;27.10;63.20
1129;DHT22;553;51.038;7.216;2022-08-21T15:19:58;27.10;63.30
1129;DHT22;553;51.038;7.216;2022-08-21T15:22:26;27.30;63.00
1129;DHT22;553;51.038;7.216;2022-08-21T15:24:55;27.30;62.40
1129;DHT22;553;51.038;7.216;2022-08-21T15:27:22;27.30;62.90
1129;DHT22;553;51.038;7.216;2022-08-21T15:29:48;27.20;62.70
1129;DHT22;553;51.038;7.216;2022-08-21T15:32:21;27.20;62.60
1129;DHT22;553;51.038;7.216;2022-08-21T15:34:51;27.10;63.00
1129;DHT22;553;51.038;7.216;2022-08-21T15:37:18;27.10;62.90
1129;DHT22;553;51.038;7.216;2022-08-21T15:39:45;27.00;63.10
1129;DHT22;553;51.038;7.216;2022-08-21T15:42:19;27.10;62.80
1129;DHT22;553;51.038;7.216;2022-08-21T15:44:46;26.90;63.00
1129;DHT22;553;51.038;7.216;2022-08-21T15:47:16;26.80;63.80
1129;DHT22;553;51.038;7.216;2022-08-21T15:49:43;26.90;63.80
1129;DHT22;553;51.038;7.216;2022-08-21T15:52:17;26.90;63.60
1129;DHT22;553;51.038;7.216;2022-08-21T15:54:44;26.90;63.00
1129;DHT22;553;51.038;7.216;2022-08-21T15:57:14;26.80;63.10
1129;DHT22;553;51.038;7.216;2022-08-21T15:59:43;26.80;63.50
1129;DHT22;553;51.038;7.216;2022-08-21T16:02:14;26.50;63.50
1129;DHT22;553;51.038;7.216;2022-08-21T16:04:42;26.30;63.70
1129;DHT22;553;51.038;7.216;2022-08-21T16:07:09;26.40;64.00
1129;DHT22;553;51.038;7.216;2022-08-21T16:09:36;26.30;63.90
1129;DHT22;553;51.038;7.216;2022-08-21T16:12:05;26.30;64.40
1129;DHT22;553;51.038;7.216;2022-08-21T16:14:33;26.40;63.90
1129;DHT22;553;51.038;7.216;2022-08-21T16:17:06;26.50;64.10
1129;DHT22;553;51.038;7.216;2022-08-21T16:19:34;26.50;64.50
1129;DHT22;553;51.038;7.216;2022-08-21T16:22:03;26.60;64.20
1129;DHT22;553;51.038;7.216;2022-08-21T16:24:30;26.60;64.50
1129;DHT22;553;51.038;7.216;2022-08-21T16:26:57;26.60;63.40
1129;DHT22;553;51.038;7.216;2022-08-21T16:29:26;26.60;63.90
1129;DHT22;553;51.038;7.216;2022-08-21T16:31:54;26.50;64.00
1129;DHT22;553;51.038;7.216;2022-08-21T16:34:21;26.40;64.20
1129;DHT22;553;51.038;7.216;2022-08-21T16:36:48;26.40;64.60
1129;DHT22;553;51.038;7.216;2022-08-21T16:39:15;26.40;64.60
1129;DHT22;553;51.038;7.216;2022-08-21T16:41:42;26.30;65.00
1129;DHT22;553;51.038;7.216;2022-08-21T16:44:08;26.30;65.10
1129;DHT22;553;51.038;7.216;2022-08-21T16:46:39;26.40;65.00
1129;DHT22;553;51.038;7.216;2022-08-21T16:49:06;26.30;65.10
1129;DHT22;553;51.038;7.216;2022-08-21T16:51:34;26.30;65.80
1129;DHT22;553;51.038;7.216;2022-08-21T16:54:00;26.30;65.60
1129;DHT22;553;51.038;7.216;2022-08-21T16:56:28;26.30;65.60
1129;DHT22;553;51.038;7.216;2022-08-21T16:58:56;26.20;65.60
1129;DHT22;553;51.038;7.216;2022-08-21T17:01:31;26.10;65.60
1129;DHT22;553;51.038;7.216;2022-08-21T17:03:59;26.20;65.40
1129;DHT22;553;51.038;7.216;2022-08-21T17:06:26;26.20;66.10
1129;DHT22;553;51.038;7.216;2022-08-21T17:08:55;26.20;65.50
1129;DHT22;553;51.038;7.216;2022-08-21T17:11:33;26.20;65.80
1129;DHT22;553;51.038;7.216;2022-08-21T17:14:10;26.10;65.40
1129;DHT22;553;51.038;7.216;2022-08-21T17:16:39;26.20;65.30
1129;DHT22;553;51.038;7.216;2022-08-21T17:19:07;26.10;65.90
1129;DHT22;553;51.038;7.216;2022-08-21T17:21:34;26.10;65.90
1129;DHT22;553;51.038;7.216;2022-08-21T17:24:01;26.10;66.30
1129;DHT22;553;51.038;7.216;2022-08-21T17:26:27;26.10;66.70
1129;DHT22;553;51.038;7.216;2022-08-21T17:28:54;26.20;66.10
1129;DHT22;553;51.038;7.216;2022-08-21T17:31:21;26.10;66.50
1129;DHT22;553;51.038;7.216;2022-08-21T17:33:51;25.90;66.80
1129;DHT22;553;51.038;7.216;2022-08-21T17:36:21;25.90;66.70
1129;DHT22;553;51.038;7.216;2022-08-21T17:38:48;25.90;67.00
1129;DHT22;553;51.038;7.216;2022-08-21T17:41:15;25.80;67.50
1129;DHT22;553;51.038;7.216;2022-08-21T17:43:42;25.80;67.60
1129;DHT22;553;51.038;7.216;2022-08-21T17:46:12;25.70;67.70
1129;DHT22;553;51.038;7.216;2022-08-21T17:48:40;25.40;68.50
1129;DHT22;553;51.038;7.216;2022-08-21T17:51:13;25.40;68.80
1129;DHT22;553;51.038;7.216;2022-08-21T17:53:40;25.40;68.90
1129;DHT22;553;51.038;7.216;2022-08-21T17:56:08;25.30;69.20
1129;DHT22;553;51.038;7.216;2022-08-21T17:58:35;25.30;69.70
1129;DHT22;553;51.038;7.216;2022-08-21T18:01:03;25.20;69.70
1129;DHT22;553;51.038;7.216;2022-08-21T18:03:32;25.20;70.00
1129;DHT22;553;51.038;7.216;2022-08-21T18:06:04;25.20;69.60